createdAt,value
2022-10-11T00:00:37.004Z,20.4
2022-10-11T00:10:46.338Z,20.3
2022-10-11T00:20:53.934Z,20.2
2022-10-11T00:31:01.638Z,20.1
2022-10-11T00:41:08.944Z,20.1
2022-10-11T00:51:16.417Z,19.8
2022-10-11T01:01:23.962Z,19.7
2022-10-11T01:11:31.243Z,19.6
2022-10-11T01:21:38.701Z,19.6
2022-10-11T01:31:46.088Z,19.4
2022-10-11T01:41:53.519Z,19.4
2022-10-11T01:52:01.023Z,19.2
2022-10-11T02:02:09.618Z,19.2
2022-10-11T02:12:16.135Z,19.1
2022-10-11T02:22:23.461Z,19.1
2022-10-11T02:32:30.850Z,19
2022-10-11T02:42:38.241Z,19.2
2022-10-11T02:52:48.801Z,19
2022-10-11T03:02:55.382Z,19
2022-10-11T03:12:59.899Z,19.1
2022-10-11T03:23:07.052Z,19
2022-10-11T03:33:14.524Z,19
2022-10-11T03:43:21.912Z,18.8
2022-10-11T03:53:31.228Z,18.7
2022-10-11T04:03:38.727Z,18.5
2022-10-11T04:13:46.233Z,18.4
2022-10-11T04:23:53.643Z,18.4
2022-10-11T04:34:01.170Z,18.3
2022-10-11T04:44:08.631Z,18.3
2022-10-11T04:54:16.086Z,18.3
2022-10-11T05:04:23.561Z,18.3
2022-10-11T05:14:31.095Z,18.2
2022-10-11T05:24:39.874Z,18.2
2022-10-11T05:34:48.260Z,18.2
2022-10-11T05:44:48.890Z,18
2022-10-11T05:54:58.735Z,18.1
2022-10-11T06:05:07.301Z,18.1
2022-10-11T06:15:14.703Z,18.2
2022-10-11T06:25:22.210Z,18.4
2022-10-11T06:35:30.752Z,18.4
2022-10-11T06:45:38.213Z,18.5
2022-10-11T06:55:47.923Z,18.5
2022-10-11T07:05:58.954Z,18.6
2022-10-11T07:16:03.194Z,18.9
2022-10-11T07:26:09.236Z,19.2
2022-10-11T07:36:19.467Z,19.5
2022-10-11T07:46:17.922Z,19.7
2022-10-11T07:56:27.673Z,19.9
2022-10-11T08:06:26.946Z,20.5
2022-10-11T08:16:27.793Z,21.4
2022-10-11T08:26:28.190Z,21.2
2022-10-11T08:36:37.078Z,21.4
2022-10-11T08:46:44.597Z,21.5
2022-10-11T08:56:51.346Z,21.4
2022-10-11T09:07:02.595Z,21.4
2022-10-11T09:17:05.475Z,21.5
2022-10-11T09:27:13.022Z,21.7
2022-10-11T09:37:19.459Z,21.9
2022-10-11T09:47:26.998Z,22
2022-10-11T09:57:35.987Z,22.2
2022-10-11T10:07:43.500Z,22.6
2022-10-11T10:17:52.106Z,22.8
2022-10-11T10:27:59.777Z,22.9
2022-10-11T10:38:02.466Z,23
2022-10-11T10:48:03.372Z,23.1
2022-10-11T10:58:15.120Z,23.5
2022-10-11T11:08:17.978Z,23.7
2022-10-11T11:18:26.300Z,23.7
2022-10-11T11:28:36.133Z,23.5
2022-10-11T11:38:43.454Z,23.6
2022-10-11T11:48:51.179Z,23.8
2022-10-11T11:58:59.089Z,23.7
2022-10-11T12:09:07.853Z,24.2
2022-10-11T12:19:15.558Z,24
2022-10-11T12:29:18.386Z,24.1
2022-10-11T12:39:26.759Z,24.2
2022-10-11T12:49:35.454Z,24.6
2022-10-11T12:59:34.244Z,24.6
2022-10-11T13:09:46.701Z,24.8
2022-10-11T13:19:51.948Z,24.6
2022-10-11T13:30:02.499Z,24.4
2022-10-11T13:40:01.862Z,24.1
2022-10-11T13:50:09.287Z,24.1
2022-10-11T14:00:16.804Z,23.9
2022-10-11T14:10:25.270Z,23.8
2022-10-11T14:20:26.381Z,23.6
2022-10-11T14:30:31.068Z,23.4
2022-10-11T14:40:39.841Z,23.1
2022-10-11T14:50:46.396Z,23.3
2022-10-11T15:00:53.907Z,23.1
2022-10-11T15:11:01.547Z,23.1
2022-10-11T15:21:09.452Z,23.2
2022-10-11T15:31:17.235Z,23.1
2022-10-11T15:41:24.714Z,22.9
2022-10-11T15:51:32.130Z,23.1
2022-10-11T16:01:40.060Z,22.8
2022-10-11T16:11:47.910Z,23.1
2022-10-11T16:21:55.455Z,23
2022-10-11T16:32:03.007Z,22.8
2022-10-11T16:42:10.465Z,22.8
2022-10-11T16:52:17.965Z,22.8
2022-10-11T17:02:28.736Z,22.6
2022-10-11T17:12:31.456Z,22.6
2022-10-11T17:22:38.450Z,22.5
2022-10-11T17:32:45.906Z,22.5
2022-10-11T17:42:53.236Z,22.4
2022-10-11T17:53:00.752Z,22.1
2022-10-11T18:03:08.245Z,22.3
2022-10-11T18:13:15.757Z,22.2
2022-10-11T18:23:24.509Z,22.3
2022-10-11T18:33:32.044Z,22.3
2022-10-11T18:43:39.646Z,22.1
2022-10-11T18:53:47.218Z,22
2022-10-11T19:03:55.881Z,21.9
2022-10-11T19:14:03.798Z,21.7
2022-10-11T19:24:12.258Z,21.9
2022-10-11T19:34:13.709Z,21.8
2022-10-11T19:44:21.321Z,21.4
2022-10-11T19:54:28.518Z,21.4
2022-10-11T20:04:52.693Z,21.6
2022-10-11T20:14:42.382Z,21.7
2022-10-11T20:24:49.932Z,21.7
2022-10-11T20:34:57.431Z,21.6
2022-10-11T20:45:04.991Z,21.6
2022-10-11T20:55:12.602Z,21.3
2022-10-11T21:05:20.046Z,21.1
2022-10-11T21:15:28.931Z,21
2022-10-11T21:25:35.668Z,20.8
2022-10-11T21:35:43.112Z,20.7
2022-10-11T21:45:51.887Z,20.8
2022-10-11T21:56:01.023Z,20.8
2022-10-11T22:06:09.818Z,20.7
2022-10-11T22:16:17.385Z,20.4
2022-10-11T22:26:25.008Z,20.3
2022-10-11T22:36:34.720Z,20.3
2022-10-11T22:46:41.719Z,20.2
2022-10-11T22:56:49.322Z,20.2
2022-10-11T23:06:58.455Z,20.2
2022-10-11T23:17:02.898Z,20.1
2022-10-11T23:27:11.671Z,19.9
2022-10-11T23:37:19.296Z,19.9
2022-10-11T23:47:26.720Z,19.7
2022-10-11T23:57:34.274Z,19.7
